sensor_id;sensor_type;location;lat;lon;timestamp;P1;durP1;ratioP1;P2;durP2;ratioP2
49384;SDS011;36795;45.028;38.968;2022-11-15T00:01:11;74.18;;;35.78;;
49384;SDS011;36795;45.028;38.968;2022-11-15T00:04:20;75.32;;;36.35;;
49384;SDS011;36795;45.028;38.968;2022-11-15T00:07:24;70.95;;;35.67;;
49384;SDS011;36795;45.028;38.968;2022-11-15T00:10:28;72.35;;;35.70;;
49384;SDS011;36795;45.028;38.968;2022-11-15T00:13:32;74.25;;;37.10;;
49384;SDS011;36795;45.028;38.968;2022-11-15T00:16:36;73.18;;;36.60;;
49384;SDS011;36795;45.028;38.968;2022-11-15T00:19:41;73.97;;;36.05;;
49384;SDS011;36795;45.028;38.968;2022-11-15T00:22:45;71.78;;;36.63;;
49384;SDS011;36795;45.028;38.968;2022-11-15T00:25:56;75.32;;;37.20;;
49384;SDS011;36795;45.028;38.968;2022-11-15T00:29:01;73.05;;;36.85;;
49384;SDS011;36795;45.028;38.968;2022-11-15T00:32:06;75.37;;;36.55;;
49384;SDS011;36795;45.028;38.968;2022-11-15T00:35:10;74.87;;;37.83;;
49384;SDS011;36795;45.028;38.968;2022-11-15T00:38:14;75.23;;;36.30;;
49384;SDS011;36795;45.028;38.968;2022-11-15T00:41:18;80.90;;;37.58;;
49384;SDS011;36795;45.028;38.968;2022-11-15T00:44:22;72.35;;;36.17;;
49384;SDS011;36795;45.028;38.968;2022-11-15T00:47:27;80.60;;;37.95;;
49384;SDS011;36795;45.028;38.968;2022-11-15T00:50:31;73.95;;;38.08;;
49384;SDS011;36795;45.028;38.968;2022-11-15T00:53:35;77.07;;;37.30;;
49384;SDS011;36795;45.028;38.968;2022-11-15T00:56:39;72.85;;;36.22;;
49384;SDS011;36795;45.028;38.968;2022-11-15T00:59:43;86.05;;;39.35;;
49384;SDS011;36795;45.028;38.968;2022-11-15T01:02:48;75.30;;;37.20;;
49384;SDS011;36795;45.028;38.968;2022-11-15T01:05:52;81.00;;;39.78;;
49384;SDS011;36795;45.028;38.968;2022-11-15T01:08:56;77.63;;;39.57;;
49384;SDS011;36795;45.028;38.968;2022-11-15T01:12:03;78.12;;;40.88;;
49384;SDS011;36795;45.028;38.968;2022-11-15T01:15:08;87.18;;;42.80;;
49384;SDS011;36795;45.028;38.968;2022-11-15T01:18:12;81.68;;;42.50;;
49384;SDS011;36795;45.028;38.968;2022-11-15T01:21:17;90.15;;;45.10;;
49384;SDS011;36795;45.028;38.968;2022-11-15T01:24:22;79.28;;;42.40;;
49384;SDS011;36795;45.028;38.968;2022-11-15T01:27:26;87.07;;;44.45;;
49384;SDS011;36795;45.028;38.968;2022-11-15T01:30:30;88.45;;;45.95;;
49384;SDS011;36795;45.028;38.968;2022-11-15T01:33:35;84.00;;;45.33;;
49384;SDS011;36795;45.028;38.968;2022-11-15T01:39:43;85.65;;;44.97;;
49384;SDS011;36795;45.028;38.968;2022-11-15T01:42:47;83.35;;;44.53;;
49384;SDS011;36795;45.028;38.968;2022-11-15T01:46:15;85.00;;;43.22;;
49384;SDS011;36795;45.028;38.968;2022-11-15T01:49:25;85.65;;;44.70;;
49384;SDS011;36795;45.028;38.968;2022-11-15T01:52:33;86.50;;;45.35;;
49384;SDS011;36795;45.028;38.968;2022-11-15T01:55:39;77.47;;;43.78;;
49384;SDS011;36795;45.028;38.968;2022-11-15T01:58:43;111.57;;;48.47;;
49384;SDS011;36795;45.028;38.968;2022-11-15T02:01:48;75.60;;;43.40;;
49384;SDS011;36795;45.028;38.968;2022-11-15T02:04:54;80.15;;;44.58;;
49384;SDS011;36795;45.028;38.968;2022-11-15T02:07:59;87.80;;;44.67;;
49384;SDS011;36795;45.028;38.968;2022-11-15T02:11:07;76.25;;;40.97;;
49384;SDS011;36795;45.028;38.968;2022-11-15T02:14:12;78.93;;;41.35;;
49384;SDS011;36795;45.028;38.968;2022-11-15T02:30:45;223.65;;;47.00;;
49384;SDS011;36795;45.028;38.968;2022-11-15T02:37:51;167.62;;;45.90;;
49384;SDS011;36795;45.028;38.968;2022-11-15T02:44:24;92.93;;;42.62;;
49384;SDS011;36795;45.028;38.968;2022-11-15T02:47:43;71.18;;;39.17;;
49384;SDS011;36795;45.028;38.968;2022-11-15T02:50:49;78.25;;;40.75;;
49384;SDS011;36795;45.028;38.968;2022-11-15T02:57:00;82.43;;;38.63;;
49384;SDS011;36795;45.028;38.968;2022-11-15T03:00:08;84.60;;;40.10;;
49384;SDS011;36795;45.028;38.968;2022-11-15T03:19:34;73.47;;;35.58;;
49384;SDS011;36795;45.028;38.968;2022-11-15T03:23:00;74.03;;;35.47;;
49384;SDS011;36795;45.028;38.968;2022-11-15T03:26:08;62.50;;;33.33;;
49384;SDS011;36795;45.028;38.968;2022-11-15T03:29:22;59.75;;;33.58;;
49384;SDS011;36795;45.028;38.968;2022-11-15T03:32:30;59.75;;;33.47;;
49384;SDS011;36795;45.028;38.968;2022-11-15T03:35:37;64.03;;;34.45;;
49384;SDS011;36795;45.028;38.968;2022-11-15T03:38:45;58.92;;;32.88;;
49384;SDS011;36795;45.028;38.968;2022-11-15T03:41:52;55.92;;;32.60;;
49384;SDS011;36795;45.028;38.968;2022-11-15T03:45:07;62.45;;;31.75;;
49384;SDS011;36795;45.028;38.968;2022-11-15T03:48:27;63.42;;;32.92;;
49384;SDS011;36795;45.028;38.968;2022-11-15T03:51:56;54.13;;;32.00;;
49384;SDS011;36795;45.028;38.968;2022-11-15T03:55:03;60.38;;;32.53;;
49384;SDS011;36795;45.028;38.968;2022-11-15T03:58:09;58.63;;;31.98;;
49384;SDS011;36795;45.028;38.968;2022-11-15T04:01:13;56.03;;;32.08;;
49384;SDS011;36795;45.028;38.968;2022-11-15T04:04:17;56.92;;;32.63;;
49384;SDS011;36795;45.028;38.968;2022-11-15T04:07:21;57.05;;;32.60;;
49384;SDS011;36795;45.028;38.968;2022-11-15T04:10:25;56.28;;;31.33;;
49384;SDS011;36795;45.028;38.968;2022-11-15T04:13:29;56.73;;;32.13;;
49384;SDS011;36795;45.028;38.968;2022-11-15T04:16:37;57.30;;;32.72;;
49384;SDS011;36795;45.028;38.968;2022-11-15T04:19:41;60.22;;;32.13;;
49384;SDS011;36795;45.028;38.968;2022-11-15T04:23:09;58.85;;;34.10;;
49384;SDS011;36795;45.028;38.968;2022-11-15T04:26:41;78.22;;;41.30;;
49384;SDS011;36795;45.028;38.968;2022-11-15T04:29:45;86.97;;;47.28;;
49384;SDS011;36795;45.028;38.968;2022-11-15T04:32:49;95.18;;;52.67;;
49384;SDS011;36795;45.028;38.968;2022-11-15T04:35:54;84.72;;;47.67;;
49384;SDS011;36795;45.028;38.968;2022-11-15T04:39:17;91.63;;;47.17;;
49384;SDS011;36795;45.028;38.968;2022-11-15T04:42:21;89.65;;;45.70;;
49384;SDS011;36795;45.028;38.968;2022-11-15T04:45:25;79.70;;;46.40;;
49384;SDS011;36795;45.028;38.968;2022-11-15T04:48:29;80.07;;;43.58;;
49384;SDS011;36795;45.028;38.968;2022-11-15T04:51:33;76.13;;;41.97;;
49384;SDS011;36795;45.028;38.968;2022-11-15T04:54:37;89.93;;;47.03;;
49384;SDS011;36795;45.028;38.968;2022-11-15T04:57:41;83.32;;;44.90;;
49384;SDS011;36795;45.028;38.968;2022-11-15T05:00:45;81.47;;;40.95;;
49384;SDS011;36795;45.028;38.968;2022-11-15T05:03:50;74.53;;;41.15;;
49384;SDS011;36795;45.028;38.968;2022-11-15T05:07:12;76.87;;;42.70;;
49384;SDS011;36795;45.028;38.968;2022-11-15T05:10:17;86.10;;;43.38;;
49384;SDS011;36795;45.028;38.968;2022-11-15T05:13:21;83.12;;;41.40;;
49384;SDS011;36795;45.028;38.968;2022-11-15T05:16:26;75.37;;;40.17;;
49384;SDS011;36795;45.028;38.968;2022-11-15T05:19:30;88.05;;;40.28;;
49384;SDS011;36795;45.028;38.968;2022-11-15T05:22:34;80.72;;;40.00;;
49384;SDS011;36795;45.028;38.968;2022-11-15T05:25:38;88.28;;;41.90;;
49384;SDS011;36795;45.028;38.968;2022-11-15T05:28:43;86.15;;;38.95;;
49384;SDS011;36795;45.028;38.968;2022-11-15T05:31:47;99.80;;;40.72;;
49384;SDS011;36795;45.028;38.968;2022-11-15T05:34:51;89.10;;;41.25;;
49384;SDS011;36795;45.028;38.968;2022-11-15T05:37:56;81.70;;;37.70;;
49384;SDS011;36795;45.028;38.968;2022-11-15T05:44:05;153.23;;;38.13;;
49384;SDS011;36795;45.028;38.968;2022-11-15T05:47:14;105.40;;;38.00;;
49384;SDS011;36795;45.028;38.968;2022-11-15T05:50:22;83.32;;;36.50;;
49384;SDS011;36795;45.028;38.968;2022-11-15T05:53:27;79.35;;;38.70;;
49384;SDS011;36795;45.028;38.968;2022-11-15T05:56:31;114.28;;;41.78;;
49384;SDS011;36795;45.028;38.968;2022-11-15T05:59:35;80.57;;;41.63;;
49384;SDS011;36795;45.028;38.968;2022-11-15T06:02:40;83.32;;;39.85;;
49384;SDS011;36795;45.028;38.968;2022-11-15T06:05:44;84.22;;;40.78;;
49384;SDS011;36795;45.028;38.968;2022-11-15T06:08:49;86.05;;;41.63;;
49384;SDS011;36795;45.028;38.968;2022-11-15T06:11:53;92.43;;;41.40;;
49384;SDS011;36795;45.028;38.968;2022-11-15T06:14:57;95.72;;;40.60;;
49384;SDS011;36795;45.028;38.968;2022-11-15T06:18:01;89.22;;;41.00;;
49384;SDS011;36795;45.028;38.968;2022-11-15T06:21:06;80.55;;;38.72;;
49384;SDS011;36795;45.028;38.968;2022-11-15T06:24:10;106.03;;;41.42;;
49384;SDS011;36795;45.028;38.968;2022-11-15T06:27:14;94.22;;;40.78;;
49384;SDS011;36795;45.028;38.968;2022-11-15T06:30:19;106.37;;;38.00;;
49384;SDS011;36795;45.028;38.968;2022-11-15T06:33:23;109.82;;;40.17;;
49384;SDS011;36795;45.028;38.968;2022-11-15T06:36:28;79.55;;;40.00;;
49384;SDS011;36795;45.028;38.968;2022-11-15T06:39:32;83.65;;;38.50;;
49384;SDS011;36795;45.028;38.968;2022-11-15T06:42:36;99.75;;;37.10;;
49384;SDS011;36795;45.028;38.968;2022-11-15T06:45:40;84.93;;;36.35;;
49384;SDS011;36795;45.028;38.968;2022-11-15T06:48:45;64.82;;;32.92;;
49384;SDS011;36795;45.028;38.968;2022-11-15T06:51:52;66.85;;;35.95;;
49384;SDS011;36795;45.028;38.968;2022-11-15T06:54:57;65.60;;;33.53;;
49384;SDS011;36795;45.028;38.968;2022-11-15T06:58:12;62.55;;;31.75;;
49384;SDS011;36795;45.028;38.968;2022-11-15T07:04:20;60.50;;;30.67;;
49384;SDS011;36795;45.028;38.968;2022-11-15T07:07:25;59.80;;;30.60;;
49384;SDS011;36795;45.028;38.968;2022-11-15T07:10:29;63.05;;;32.75;;
49384;SDS011;36795;45.028;38.968;2022-11-15T07:13:33;54.50;;;28.90;;
49384;SDS011;36795;45.028;38.968;2022-11-15T07:16:42;60.08;;;31.70;;
49384;SDS011;36795;45.028;38.968;2022-11-15T07:19:46;61.60;;;31.65;;
49384;SDS011;36795;45.028;38.968;2022-11-15T07:22:50;60.50;;;32.65;;
49384;SDS011;36795;45.028;38.968;2022-11-15T07:25:56;59.35;;;32.28;;
49384;SDS011;36795;45.028;38.968;2022-11-15T07:29:01;58.65;;;30.50;;
49384;SDS011;36795;45.028;38.968;2022-11-15T07:32:06;56.55;;;33.08;;
49384;SDS011;36795;45.028;38.968;2022-11-15T07:35:10;56.92;;;29.75;;
49384;SDS011;36795;45.028;38.968;2022-11-15T07:38:14;52.88;;;30.67;;
49384;SDS011;36795;45.028;38.968;2022-11-15T07:41:22;51.33;;;29.40;;
49384;SDS011;36795;45.028;38.968;2022-11-15T07:44:26;59.08;;;29.42;;
49384;SDS011;36795;45.028;38.968;2022-11-15T07:47:31;48.05;;;25.17;;
49384;SDS011;36795;45.028;38.968;2022-11-15T07:50:35;46.08;;;20.35;;
49384;SDS011;36795;45.028;38.968;2022-11-15T07:53:39;46.80;;;20.95;;
49384;SDS011;36795;45.028;38.968;2022-11-15T07:56:43;42.33;;;20.67;;
49384;SDS011;36795;45.028;38.968;2022-11-15T07:59:48;34.40;;;17.73;;
49384;SDS011;36795;45.028;38.968;2022-11-15T08:02:52;39.22;;;18.80;;
49384;SDS011;36795;45.028;38.968;2022-11-15T08:06:04;35.70;;;16.98;;
49384;SDS011;36795;45.028;38.968;2022-11-15T08:09:09;36.03;;;17.70;;
49384;SDS011;36795;45.028;38.968;2022-11-15T08:12:13;35.15;;;16.42;;
49384;SDS011;36795;45.028;38.968;2022-11-15T08:15:18;36.45;;;17.73;;
49384;SDS011;36795;45.028;38.968;2022-11-15T08:18:22;32.33;;;14.80;;
49384;SDS011;36795;45.028;38.968;2022-11-15T08:21:26;27.05;;;11.98;;
49384;SDS011;36795;45.028;38.968;2022-11-15T08:24:30;28.60;;;15.15;;
49384;SDS011;36795;45.028;38.968;2022-11-15T08:27:34;31.83;;;14.57;;
49384;SDS011;36795;45.028;38.968;2022-11-15T08:30:39;31.50;;;11.85;;
49384;SDS011;36795;45.028;38.968;2022-11-15T08:33:45;28.10;;;11.32;;
49384;SDS011;36795;45.028;38.968;2022-11-15T08:36:49;27.08;;;12.25;;
49384;SDS011;36795;45.028;38.968;2022-11-15T08:39:53;27.30;;;11.05;;
49384;SDS011;36795;45.028;38.968;2022-11-15T08:42:57;29.15;;;10.43;;
49384;SDS011;36795;45.028;38.968;2022-11-15T08:46:05;27.45;;;9.20;;
49384;SDS011;36795;45.028;38.968;2022-11-15T08:49:12;30.20;;;9.57;;
49384;SDS011;36795;45.028;38.968;2022-11-15T08:58:24;27.73;;;10.18;;
49384;SDS011;36795;45.028;38.968;2022-11-15T09:01:28;24.15;;;9.55;;
49384;SDS011;36795;45.028;38.968;2022-11-15T09:04:32;24.42;;;9.02;;
49384;SDS011;36795;45.028;38.968;2022-11-15T09:10:40;26.25;;;9.93;;
49384;SDS011;36795;45.028;38.968;2022-11-15T09:13:44;23.45;;;7.82;;
49384;SDS011;36795;45.028;38.968;2022-11-15T09:16:48;22.35;;;8.70;;
49384;SDS011;36795;45.028;38.968;2022-11-15T09:19:52;26.42;;;9.93;;
49384;SDS011;36795;45.028;38.968;2022-11-15T09:23:02;30.45;;;14.10;;
49384;SDS011;36795;45.028;38.968;2022-11-15T09:26:08;29.12;;;12.90;;
49384;SDS011;36795;45.028;38.968;2022-11-15T09:32:16;29.60;;;11.02;;
49384;SDS011;36795;45.028;38.968;2022-11-15T09:35:20;25.62;;;10.75;;
49384;SDS011;36795;45.028;38.968;2022-11-15T09:38:24;28.23;;;13.20;;
49384;SDS011;36795;45.028;38.968;2022-11-15T09:48:25;26.33;;;9.63;;
49384;SDS011;36795;45.028;38.968;2022-11-15T09:51:48;24.87;;;8.98;;
49384;SDS011;36795;45.028;38.968;2022-11-15T09:54:37;25.33;;;9.90;;
49384;SDS011;36795;45.028;38.968;2022-11-15T10:00:37;28.20;;;11.25;;
49384;SDS011;36795;45.028;38.968;2022-11-15T10:03:33;26.62;;;10.20;;
49384;SDS011;36795;45.028;38.968;2022-11-15T10:06:23;23.67;;;10.25;;
49384;SDS011;36795;45.028;38.968;2022-11-15T10:12:00;26.17;;;9.23;;
49384;SDS011;36795;45.028;38.968;2022-11-15T10:14:46;25.30;;;10.18;;
49384;SDS011;36795;45.028;38.968;2022-11-15T10:17:50;24.58;;;9.50;;
49384;SDS011;36795;45.028;38.968;2022-11-15T10:21:20;25.15;;;9.73;;
49384;SDS011;36795;45.028;38.968;2022-11-15T10:24:10;25.75;;;10.63;;
49384;SDS011;36795;45.028;38.968;2022-11-15T10:26:58;27.08;;;9.68;;
49384;SDS011;36795;45.028;38.968;2022-11-15T10:29:48;25.40;;;9.23;;
49384;SDS011;36795;45.028;38.968;2022-11-15T10:35:28;24.33;;;8.02;;
49384;SDS011;36795;45.028;38.968;2022-11-15T10:38:15;22.77;;;8.90;;
49384;SDS011;36795;45.028;38.968;2022-11-15T10:41:06;23.02;;;8.65;;
49384;SDS011;36795;45.028;38.968;2022-11-15T10:49:52;26.75;;;9.27;;
49384;SDS011;36795;45.028;38.968;2022-11-15T10:52:43;22.87;;;8.52;;
49384;SDS011;36795;45.028;38.968;2022-11-15T10:55:32;25.48;;;9.32;;
49384;SDS011;36795;45.028;38.968;2022-11-15T10:58:21;24.87;;;7.97;;
49384;SDS011;36795;45.028;38.968;2022-11-15T11:01:18;24.50;;;10.20;;
49384;SDS011;36795;45.028;38.968;2022-11-15T11:04:08;23.50;;;8.15;;
49384;SDS011;36795;45.028;38.968;2022-11-15T11:06:58;33.28;;;8.63;;
49384;SDS011;36795;45.028;38.968;2022-11-15T11:09:45;23.70;;;7.75;;
49384;SDS011;36795;45.028;38.968;2022-11-15T11:12:46;24.77;;;8.23;;
49384;SDS011;36795;45.028;38.968;2022-11-15T11:15:32;27.23;;;9.25;;
49384;SDS011;36795;45.028;38.968;2022-11-15T11:25:30;25.35;;;11.70;;
49384;SDS011;36795;45.028;38.968;2022-11-15T11:28:36;32.70;;;10.45;;
49384;SDS011;36795;45.028;38.968;2022-11-15T11:37:54;28.50;;;10.10;;
49384;SDS011;36795;45.028;38.968;2022-11-15T11:40:55;27.83;;;10.23;;
49384;SDS011;36795;45.028;38.968;2022-11-15T11:53:09;26.37;;;9.05;;
49384;SDS011;36795;45.028;38.968;2022-11-15T11:55:57;28.73;;;10.20;;
49384;SDS011;36795;45.028;38.968;2022-11-15T11:58:49;24.70;;;9.88;;
49384;SDS011;36795;45.028;38.968;2022-11-15T12:01:43;27.33;;;10.30;;
49384;SDS011;36795;45.028;38.968;2022-11-15T12:04:32;25.75;;;9.73;;
49384;SDS011;36795;45.028;38.968;2022-11-15T12:07:24;22.55;;;9.50;;
49384;SDS011;36795;45.028;38.968;2022-11-15T12:13:16;25.60;;;9.27;;
49384;SDS011;36795;45.028;38.968;2022-11-15T12:19:27;25.10;;;9.30;;
49384;SDS011;36795;45.028;38.968;2022-11-15T12:22:23;28.90;;;10.38;;
49384;SDS011;36795;45.028;38.968;2022-11-15T12:25:30;32.55;;;9.38;;
49384;SDS011;36795;45.028;38.968;2022-11-15T12:31:44;26.20;;;9.30;;
49384;SDS011;36795;45.028;38.968;2022-11-15T12:34:42;28.10;;;9.80;;
49384;SDS011;36795;45.028;38.968;2022-11-15T12:37:34;27.30;;;9.88;;
49384;SDS011;36795;45.028;38.968;2022-11-15T12:41:11;26.85;;;9.60;;
49384;SDS011;36795;45.028;38.968;2022-11-15T12:52:20;31.50;;;10.57;;
49384;SDS011;36795;45.028;38.968;2022-11-15T12:55:29;27.70;;;10.13;;
49384;SDS011;36795;45.028;38.968;2022-11-15T12:58:28;30.55;;;10.25;;
49384;SDS011;36795;45.028;38.968;2022-11-15T13:04:27;27.55;;;10.18;;
49384;SDS011;36795;45.028;38.968;2022-11-15T13:13:12;26.48;;;9.52;;
49384;SDS011;36795;45.028;38.968;2022-11-15T13:16:30;29.52;;;8.88;;
49384;SDS011;36795;45.028;38.968;2022-11-15T13:19:16;25.30;;;8.00;;
49384;SDS011;36795;45.028;38.968;2022-11-15T13:22:11;26.62;;;8.63;;
49384;SDS011;36795;45.028;38.968;2022-11-15T13:25:18;26.58;;;8.57;;
49384;SDS011;36795;45.028;38.968;2022-11-15T13:28:18;26.73;;;8.68;;
49384;SDS011;36795;45.028;38.968;2022-11-15T13:31:18;26.08;;;8.18;;
49384;SDS011;36795;45.028;38.968;2022-11-15T13:40:26;26.30;;;7.68;;
49384;SDS011;36795;45.028;38.968;2022-11-15T13:46:15;25.52;;;8.60;;
49384;SDS011;36795;45.028;38.968;2022-11-15T13:49:04;25.23;;;8.98;;
49384;SDS011;36795;45.028;38.968;2022-11-15T13:51:53;28.62;;;9.68;;
49384;SDS011;36795;45.028;38.968;2022-11-15T13:55:03;27.98;;;8.80;;
49384;SDS011;36795;45.028;38.968;2022-11-15T13:57:56;28.02;;;8.77;;
49384;SDS011;36795;45.028;38.968;2022-11-15T14:00:44;26.40;;;9.85;;
49384;SDS011;36795;45.028;38.968;2022-11-15T14:03:33;27.95;;;10.40;;
49384;SDS011;36795;45.028;38.968;2022-11-15T14:06:24;27.65;;;9.75;;
49384;SDS011;36795;45.028;38.968;2022-11-15T14:09:29;27.27;;;9.27;;
49384;SDS011;36795;45.028;38.968;2022-11-15T14:15:35;33.95;;;11.88;;
49384;SDS011;36795;45.028;38.968;2022-11-15T14:28:08;31.20;;;10.88;;
49384;SDS011;36795;45.028;38.968;2022-11-15T14:31:20;34.67;;;13.23;;
49384;SDS011;36795;45.028;38.968;2022-11-15T14:34:08;29.83;;;12.00;;
49384;SDS011;36795;45.028;38.968;2022-11-15T14:36:54;35.05;;;14.15;;
49384;SDS011;36795;45.028;38.968;2022-11-15T14:39:41;35.28;;;12.73;;
49384;SDS011;36795;45.028;38.968;2022-11-15T14:42:26;29.63;;;11.80;;
49384;SDS011;36795;45.028;38.968;2022-11-15T14:45:22;29.05;;;12.20;;
49384;SDS011;36795;45.028;38.968;2022-11-15T14:48:08;29.95;;;11.80;;
49384;SDS011;36795;45.028;38.968;2022-11-15T14:50:54;30.73;;;11.50;;
49384;SDS011;36795;45.028;38.968;2022-11-15T14:53:42;30.17;;;11.57;;
49384;SDS011;36795;45.028;38.968;2022-11-15T14:56:29;31.40;;;14.15;;
49384;SDS011;36795;45.028;38.968;2022-11-15T14:59:15;36.63;;;14.23;;
49384;SDS011;36795;45.028;38.968;2022-11-15T15:02:01;33.33;;;12.95;;
49384;SDS011;36795;45.028;38.968;2022-11-15T15:04:53;32.75;;;12.50;;
49384;SDS011;36795;45.028;38.968;2022-11-15T15:07:39;32.17;;;11.52;;
49384;SDS011;36795;45.028;38.968;2022-11-15T15:10:27;33.90;;;12.73;;
49384;SDS011;36795;45.028;38.968;2022-11-15T15:13:19;29.90;;;11.40;;
49384;SDS011;36795;45.028;38.968;2022-11-15T15:16:07;34.88;;;12.20;;
49384;SDS011;36795;45.028;38.968;2022-11-15T15:18:54;31.37;;;11.00;;
49384;SDS011;36795;45.028;38.968;2022-11-15T15:21:40;32.00;;;11.52;;
49384;SDS011;36795;45.028;38.968;2022-11-15T15:24:29;31.30;;;12.27;;
49384;SDS011;36795;45.028;38.968;2022-11-15T15:27:15;30.58;;;12.43;;
49384;SDS011;36795;45.028;38.968;2022-11-15T15:30:02;32.97;;;12.95;;
49384;SDS011;36795;45.028;38.968;2022-11-15T15:32:54;31.23;;;13.90;;
49384;SDS011;36795;45.028;38.968;2022-11-15T15:35:41;39.10;;;18.62;;
49384;SDS011;36795;45.028;38.968;2022-11-15T15:38:27;36.13;;;13.23;;
49384;SDS011;36795;45.028;38.968;2022-11-15T15:41:14;30.77;;;13.23;;
49384;SDS011;36795;45.028;38.968;2022-11-15T15:44:01;33.55;;;13.32;;
49384;SDS011;36795;45.028;38.968;2022-11-15T15:46:48;32.50;;;12.98;;
49384;SDS011;36795;45.028;38.968;2022-11-15T15:49:33;35.17;;;13.73;;
49384;SDS011;36795;45.028;38.968;2022-11-15T15:52:20;35.95;;;13.30;;
49384;SDS011;36795;45.028;38.968;2022-11-15T15:55:06;32.95;;;13.77;;
49384;SDS011;36795;45.028;38.968;2022-11-15T15:57:53;30.05;;;13.25;;
49384;SDS011;36795;45.028;38.968;2022-11-15T16:00:38;33.35;;;13.90;;
49384;SDS011;36795;45.028;38.968;2022-11-15T16:03:25;35.20;;;13.75;;
49384;SDS011;36795;45.028;38.968;2022-11-15T16:09:31;35.17;;;14.13;;
49384;SDS011;36795;45.028;38.968;2022-11-15T16:12:35;38.55;;;15.85;;
49384;SDS011;36795;45.028;38.968;2022-11-15T16:15:22;33.80;;;14.65;;
49384;SDS011;36795;45.028;38.968;2022-11-15T16:18:15;32.33;;;13.25;;
49384;SDS011;36795;45.028;38.968;2022-11-15T16:21:02;31.00;;;13.80;;
49384;SDS011;36795;45.028;38.968;2022-11-15T16:23:48;31.00;;;12.85;;
49384;SDS011;36795;45.028;38.968;2022-11-15T16:26:34;33.53;;;12.60;;
49384;SDS011;36795;45.028;38.968;2022-11-15T16:29:20;31.90;;;12.52;;
49384;SDS011;36795;45.028;38.968;2022-11-15T16:32:07;36.47;;;12.88;;
49384;SDS011;36795;45.028;38.968;2022-11-15T16:34:53;34.10;;;13.18;;
49384;SDS011;36795;45.028;38.968;2022-11-15T16:37:41;32.33;;;12.90;;
49384;SDS011;36795;45.028;38.968;2022-11-15T16:40:31;34.03;;;12.55;;
49384;SDS011;36795;45.028;38.968;2022-11-15T16:43:20;31.80;;;11.90;;
49384;SDS011;36795;45.028;38.968;2022-11-15T16:46:13;29.40;;;12.13;;
49384;SDS011;36795;45.028;38.968;2022-11-15T16:49:13;31.40;;;11.68;;
49384;SDS011;36795;45.028;38.968;2022-11-15T16:52:00;29.90;;;12.40;;
49384;SDS011;36795;45.028;38.968;2022-11-15T16:54:46;28.95;;;10.75;;
49384;SDS011;36795;45.028;38.968;2022-11-15T16:57:32;30.00;;;11.20;;
49384;SDS011;36795;45.028;38.968;2022-11-15T17:00:18;27.67;;;10.90;;
49384;SDS011;36795;45.028;38.968;2022-11-15T17:03:05;27.35;;;10.43;;
49384;SDS011;36795;45.028;38.968;2022-11-15T17:05:51;29.50;;;11.23;;
49384;SDS011;36795;45.028;38.968;2022-11-15T17:08:42;29.10;;;11.15;;
49384;SDS011;36795;45.028;38.968;2022-11-15T17:11:28;29.05;;;11.40;;
49384;SDS011;36795;45.028;38.968;2022-11-15T17:14:15;29.12;;;10.63;;
49384;SDS011;36795;45.028;38.968;2022-11-15T17:17:02;29.58;;;10.25;;
49384;SDS011;36795;45.028;38.968;2022-11-15T17:19:50;30.17;;;11.35;;
49384;SDS011;36795;45.028;38.968;2022-11-15T17:22:41;31.37;;;12.13;;
49384;SDS011;36795;45.028;38.968;2022-11-15T17:25:28;29.33;;;13.50;;
49384;SDS011;36795;45.028;38.968;2022-11-15T17:28:14;32.58;;;13.60;;
49384;SDS011;36795;45.028;38.968;2022-11-15T17:31:00;31.27;;;12.35;;
49384;SDS011;36795;45.028;38.968;2022-11-15T17:33:46;28.92;;;13.23;;
49384;SDS011;36795;45.028;38.968;2022-11-15T17:36:32;31.23;;;13.75;;
49384;SDS011;36795;45.028;38.968;2022-11-15T17:39:19;32.55;;;13.45;;
49384;SDS011;36795;45.028;38.968;2022-11-15T17:42:07;32.42;;;13.52;;
49384;SDS011;36795;45.028;38.968;2022-11-15T17:44:53;33.08;;;14.05;;
49384;SDS011;36795;45.028;38.968;2022-11-15T17:47:39;32.55;;;14.40;;
49384;SDS011;36795;45.028;38.968;2022-11-15T17:50:26;36.65;;;15.73;;
49384;SDS011;36795;45.028;38.968;2022-11-15T17:53:12;32.42;;;14.93;;
49384;SDS011;36795;45.028;38.968;2022-11-15T17:56:05;33.80;;;14.82;;
49384;SDS011;36795;45.028;38.968;2022-11-15T17:58:54;32.15;;;13.93;;
49384;SDS011;36795;45.028;38.968;2022-11-15T18:01:42;38.72;;;17.50;;
49384;SDS011;36795;45.028;38.968;2022-11-15T18:04:28;35.78;;;15.82;;
49384;SDS011;36795;45.028;38.968;2022-11-15T18:07:14;33.40;;;14.32;;
49384;SDS011;36795;45.028;38.968;2022-11-15T18:10:00;35.75;;;16.42;;
49384;SDS011;36795;45.028;38.968;2022-11-15T18:12:46;35.65;;;15.30;;
49384;SDS011;36795;45.028;38.968;2022-11-15T18:15:34;33.08;;;15.18;;
49384;SDS011;36795;45.028;38.968;2022-11-15T18:18:19;35.45;;;15.38;;
49384;SDS011;36795;45.028;38.968;2022-11-15T18:21:14;34.67;;;15.18;;
49384;SDS011;36795;45.028;38.968;2022-11-15T18:24:02;31.10;;;14.80;;
49384;SDS011;36795;45.028;38.968;2022-11-15T18:26:49;34.45;;;14.43;;
49384;SDS011;36795;45.028;38.968;2022-11-15T18:29:35;33.45;;;14.52;;
49384;SDS011;36795;45.028;38.968;2022-11-15T18:32:22;31.48;;;14.82;;
49384;SDS011;36795;45.028;38.968;2022-11-15T18:35:08;36.42;;;14.85;;
49384;SDS011;36795;45.028;38.968;2022-11-15T18:37:54;32.53;;;14.55;;
49384;SDS011;36795;45.028;38.968;2022-11-15T18:40:40;33.90;;;14.50;;
49384;SDS011;36795;45.028;38.968;2022-11-15T18:43:27;31.12;;;13.65;;
49384;SDS011;36795;45.028;38.968;2022-11-15T18:46:13;32.80;;;13.23;;
49384;SDS011;36795;45.028;38.968;2022-11-15T18:49:02;31.90;;;14.20;;
49384;SDS011;36795;45.028;38.968;2022-11-15T18:51:48;35.75;;;12.80;;
49384;SDS011;36795;45.028;38.968;2022-11-15T18:54:34;29.70;;;12.68;;
49384;SDS011;36795;45.028;38.968;2022-11-15T18:57:20;33.47;;;13.65;;
49384;SDS011;36795;45.028;38.968;2022-11-15T19:00:07;33.35;;;13.20;;
49384;SDS011;36795;45.028;38.968;2022-11-15T19:02:54;30.80;;;12.00;;
49384;SDS011;36795;45.028;38.968;2022-11-15T19:05:40;30.70;;;11.88;;
49384;SDS011;36795;45.028;38.968;2022-11-15T19:08:26;30.02;;;11.95;;
49384;SDS011;36795;45.028;38.968;2022-11-15T19:11:13;33.53;;;13.30;;
49384;SDS011;36795;45.028;38.968;2022-11-15T19:14:06;30.02;;;12.02;;
49384;SDS011;36795;45.028;38.968;2022-11-15T19:16:57;31.62;;;12.75;;
49384;SDS011;36795;45.028;38.968;2022-11-15T19:19:42;35.03;;;13.98;;
49384;SDS011;36795;45.028;38.968;2022-11-15T19:22:29;28.83;;;11.98;;
49384;SDS011;36795;45.028;38.968;2022-11-15T19:25:15;29.73;;;12.73;;
49384;SDS011;36795;45.028;38.968;2022-11-15T19:28:03;27.87;;;12.50;;
49384;SDS011;36795;45.028;38.968;2022-11-15T19:30:49;28.33;;;12.63;;
49384;SDS011;36795;45.028;38.968;2022-11-15T19:33:36;32.60;;;12.07;;
49384;SDS011;36795;45.028;38.968;2022-11-15T19:36:24;31.70;;;12.98;;
49384;SDS011;36795;45.028;38.968;2022-11-15T19:39:13;30.60;;;13.52;;
49384;SDS011;36795;45.028;38.968;2022-11-15T19:42:01;31.52;;;13.48;;
49384;SDS011;36795;45.028;38.968;2022-11-15T19:44:48;33.85;;;13.82;;
49384;SDS011;36795;45.028;38.968;2022-11-15T19:47:36;30.42;;;13.90;;